Thunder radar more information blitzortung!


Radar de pluja more information rain snow radar


Visita la nostra xarxa de llocs de meteo:

Template documentation
and downloads

And another site



No particular awareness of the weather is required.    There are no Weather-warnings

Pagina Historial Weather Underground text

Diari Resum Octubre 14, 2017 Unitats:  Imperial    Mètric   Tant
« Previous Dia
SegĂźent Dia »
Diari Setmana Mensual Anual Personalitzada
  Maxima: Minima: Media:
Temperatura: 75.7 °F 59.9 °F 66.4 °F
Punt de rosada: 63.1 °F 57.2 °F 59.4 °F
Humitat: 93 % 57 % 79 %
Wind Speed: 10.4 mph 0 mph 2.7 mph
RĂ fegues de vent: 10.4 mph - -
Vent:- - ESE
Pression baro: 30.4 in 30.3 in -
Precipitacions: 0 in    
Historical Graphs
 
 
Dades de taula per Octubre 14, 2017
Temps Temperatura Punt de rosada Pression baro Vent Wind Speed RĂ fegues de vent Humitat Rainfall Rate (Hourly)
00:04 64.4 °F 58.8 °F 30.3 in SW 2.3 mph 2.3 mph 82 % 0 in
00:09 64.4 °F 58.8 °F 30.3 in SW 2 mph   82 % 0 in
00:14 64.2 °F 58.8 °F 30.3 in SW 2.3 mph 2.3 mph 83 % 0 in
00:19 64 °F 58.8 °F 30.3 in SW 1.4 mph 1.6 mph 83 % 0 in
00:24 64 °F 59.2 °F 30.3 in SW 1.2 mph   84 % 0 in
00:29 64 °F 59.2 °F 30.3 in SW 1.2 mph   84 % 0 in
00:34 63.9 °F 58.8 °F 30.3 in SW 1.2 mph   84 % 0 in
00:39 63.7 °F 58.8 °F 30.3 in Calm     84 % 0 in
00:44 63.7 °F 59.2 °F 30.3 in WSW 1.2 mph   85 % 0 in
00:49 63.7 °F 59.2 °F 30.3 in Calm     85 % 0 in
00:54 63.7 °F 59.2 °F 30.3 in Calm     85 % 0 in
00:59 63.5 °F 58.8 °F 30.3 in Calm     85 % 0 in
01:04 63.1 °F 58.6 °F 30.3 in Calm     85 % 0 in
01:05 63.1 °F 58.6 °F 30.3 in Calm     85 % 0 in
01:10 63.1 °F 58.8 °F 30.3 in NNW 1.2 mph 1.4 mph 86 % 0 in
01:15 63.1 °F 58.8 °F 30.3 in NNE 1.2 mph 1.2 mph 86 % 0 in
01:20 63.1 °F 58.8 °F 30.3 in Calm     86 % 0 in
01:25 63.1 °F 58.8 °F 30.3 in Calm     86 % 0 in
01:30 63.1 °F 58.8 °F 30.3 in NNE 1.2 mph 1.2 mph 86 % 0 in
01:35 63 °F 58.6 °F 30.3 in Calm     86 % 0 in
01:40 62.8 °F 58.5 °F 30.3 in Calm     86 % 0 in
01:45 62.8 °F 58.5 °F 30.3 in Calm     86 % 0 in
01:50 62.6 °F 58.5 °F 30.3 in Calm     86 % 0 in
01:55 62.4 °F 58.5 °F 30.3 in Calm     87 % 0 in
02:00 62.2 °F 58.3 °F 30.3 in Calm     87 % 0 in
02:05 62.2 °F 58.3 °F 30.3 in WNW 2.3 mph 2.3 mph 87 % 0 in
02:10 62.2 °F 58.3 °F 30.3 in WNW 1.2 mph 1.2 mph 87 % 0 in
02:15 62.2 °F 58.3 °F 30.3 in WNW 1.2 mph 1.2 mph 87 % 0 in
02:20 62.2 °F 58.6 °F 30.3 in Calm     88 % 0 in
02:25 62.2 °F 58.6 °F 30.3 in Calm     88 % 0 in
02:30 62.1 °F 58.5 °F 30.3 in Calm     88 % 0 in
02:35 62.1 °F 58.5 °F 30.3 in Calm     88 % 0 in
02:40 62.1 °F 58.5 °F 30.3 in Calm     88 % 0 in
02:45 61.9 °F 58.3 °F 30.3 in Calm     88 % 0 in
02:50 61.9 °F 58.3 °F 30.3 in Calm     88 % 0 in
02:55 61.9 °F 58.3 °F 30.3 in Calm     88 % 0 in
03:00 61.9 °F 58.6 °F 30.3 in Calm     89 % 0 in
03:05 61.9 °F 58.6 °F 30.3 in Calm     89 % 0 in
03:10 61.7 °F 58.5 °F 30.3 in Calm     89 % 0 in
03:15 61.9 °F 58.6 °F 30.3 in WNW 2.3 mph   89 % 0 in
03:20 62.1 °F 58.8 °F 30.3 in Calm     89 % 0 in
03:25 62.1 °F 59.2 °F 30.3 in Calm     90 % 0 in
03:30 62.1 °F 59.2 °F 30.3 in Calm     90 % 0 in
03:35 62.1 °F 59.2 °F 30.3 in Calm     90 % 0 in
03:40 62.1 °F 59.2 °F 30.3 in Calm     90 % 0 in
03:45 62.1 °F 59.2 °F 30.3 in Calm     90 % 0 in
03:50 61.9 °F 58.8 °F 30.3 in Calm     90 % 0 in
03:55 61.9 °F 58.8 °F 30.3 in Calm     90 % 0 in
04:00 62.1 °F 59.2 °F 30.3 in Calm     90 % 0 in
04:05 61.9 °F 58.8 °F 30.3 in Calm     90 % 0 in
04:10 61.9 °F 58.8 °F 30.3 in NNE 1.2 mph 1.2 mph 90 % 0 in
04:15 61.3 °F 58.5 °F 30.3 in NNE 1.6 mph 1.6 mph 90 % 0 in
04:20 61.3 °F 58.5 °F 30.3 in NNE 1.4 mph 1.4 mph 90 % 0 in
04:25 61.5 °F 58.6 °F 30.3 in Calm     90 % 0 in
04:30 60.8 °F 57.7 °F 30.3 in West 2.3 mph 2.3 mph 90 % 0 in
04:35 60.4 °F 57.2 °F 30.3 in SW 2.3 mph 2.3 mph 89 % 0 in
04:40 60.6 °F 57.7 °F 30.3 in SSE 1.2 mph 1.2 mph 90 % 0 in
04:45 60.8 °F 57.7 °F 30.3 in Calm     90 % 0 in
04:50 60.4 °F 57.6 °F 30.3 in Calm     90 % 0 in
04:55 60.6 °F 57.7 °F 30.3 in Calm     90 % 0 in
05:00 60.6 °F 57.7 °F 30.3 in Calm     90 % 0 in
05:05 60.4 °F 57.6 °F 30.3 in Calm     90 % 0 in
05:10 60.4 °F 57.6 °F 30.3 in Calm     90 % 0 in
05:15 60.3 °F 57.4 °F 30.3 in Calm     90 % 0 in
05:20 60.3 °F 57.6 °F 30.3 in Calm     91 % 0 in
05:22 60.3 °F 57.6 °F 30.3 in Calm     91 % 0 in
05:27 60.1 °F 57.4 °F 30.3 in Calm     91 % 0 in
05:32 60.1 °F 57.4 °F 30.3 in Calm     91 % 0 in
05:37 60.3 °F 57.6 °F 30.3 in Calm     91 % 0 in
05:42 60.3 °F 57.6 °F 30.3 in Calm     91 % 0 in
05:47 60.1 °F 57.4 °F 30.3 in Calm     91 % 0 in
05:52 60.1 °F 57.4 °F 30.3 in South 1.2 mph 1.2 mph 91 % 0 in
05:57 60.1 °F 57.4 °F 30.3 in Calm     91 % 0 in
06:02 60.1 °F 57.4 °F 30.3 in Calm     91 % 0 in
06:07 60.1 °F 57.4 °F 30.3 in Calm     91 % 0 in
06:13 60.1 °F 57.7 °F 30.3 in Calm     92 % 0 in
06:18 60.1 °F 57.7 °F 30.3 in Calm     92 % 0 in
06:23 60.3 °F 57.9 °F 30.3 in Calm     92 % 0 in
06:28 60.4 °F 58.1 °F 30.3 in Calm     92 % 0 in
06:33 60.4 °F 58.1 °F 30.3 in Calm     92 % 0 in
06:38 60.4 °F 58.1 °F 30.3 in Calm     92 % 0 in
06:43 60.6 °F 58.3 °F 30.3 in Calm     92 % 0 in
06:48 60.6 °F 58.3 °F 30.3 in Calm     92 % 0 in
06:53 60.8 °F 58.8 °F 30.3 in Calm     93 % 0 in
06:58 60.8 °F 58.8 °F 30.3 in Calm     93 % 0 in
07:03 60.8 °F 58.8 °F 30.3 in ENE 1.4 mph   93 % 0 in
07:08 60.8 °F 58.5 °F 30.3 in NE 2.3 mph 2.3 mph 92 % 0 in
07:13 60.8 °F 58.5 °F 30.3 in Calm     92 % 0 in
07:18 60.8 °F 58.5 °F 30.3 in NE 1.4 mph   92 % 0 in
07:23 60.6 °F 58.3 °F 30.3 in NE 1.2 mph   92 % 0 in
07:28 60.6 °F 58.3 °F 30.3 in Calm     92 % 0 in
07:33 60.4 °F 58.1 °F 30.3 in Calm     92 % 0 in
07:38 60.3 °F 57.9 °F 30.3 in SSE 1.2 mph   92 % 0 in
07:43 60.1 °F 57.7 °F 30.3 in Calm     92 % 0 in
07:48 60.1 °F 57.7 °F 30.3 in Calm     92 % 0 in
07:53 60.1 °F 57.7 °F 30.3 in Calm     92 % 0 in
07:58 59.9 °F 57.6 °F 30.3 in Calm     92 % 0 in
08:03 59.9 °F 57.6 °F 30.3 in Calm     92 % 0 in
08:08 59.9 °F 57.6 °F 30.3 in Calm     92 % 0 in
08:13 60.1 °F 57.7 °F 30.3 in Calm     92 % 0 in
08:18 60.1 °F 57.7 °F 30.3 in Calm     92 % 0 in
08:23 60.1 °F 57.7 °F 30.3 in Calm     92 % 0 in
08:28 60.1 °F 57.7 °F 30.3 in Calm     92 % 0 in
08:33 60.3 °F 57.9 °F 30.3 in Calm     92 % 0 in
08:38 60.6 °F 58.3 °F 30.3 in NNE 3.6 mph 3.6 mph 92 % 0 in
08:43 60.8 °F 58.5 °F 30.3 in NNW 1.2 mph 1.4 mph 92 % 0 in
08:48 60.8 °F 58.5 °F 30.3 in Calm     92 % 0 in
08:53 60.8 °F 58.5 °F 30.3 in Calm     92 % 0 in
08:58 60.8 °F 58.3 °F 30.3 in WSW 1.2 mph 1.2 mph 91 % 0 in
09:03 60.8 °F 58.5 °F 30.3 in Calm     92 % 0 in
09:08 61 °F 58.6 °F 30.3 in NNE 3.5 mph 3.5 mph 92 % 0 in
09:13 61.2 °F 58.8 °F 30.3 in ENE 3.5 mph 3.5 mph 92 % 0 in
09:18 61.3 °F 58.6 °F 30.3 in ENE 3.5 mph 3.5 mph 91 % 0 in
09:23 61.5 °F 58.8 °F 30.3 in Calm     91 % 0 in
09:28 61.5 °F 58.8 °F 30.4 in SE 2.3 mph 2.3 mph 91 % 0 in
09:33 61.9 °F 59.2 °F 30.4 in ENE 2.3 mph 2.3 mph 91 % 0 in
09:38 61.9 °F 59.2 °F 30.4 in ENE 2.3 mph 2.3 mph 91 % 0 in
09:43 62.1 °F 59.2 °F 30.3 in East 2 mph   90 % 0 in
09:48 62.2 °F 59.4 °F 30.3 in East 1.2 mph 1.2 mph 90 % 0 in
09:53 62.6 °F 59.5 °F 30.3 in SW 2.3 mph 2.3 mph 90 % 0 in
09:58 62.8 °F 59.7 °F 30.4 in ENE 2.3 mph 2.3 mph 90 % 0 in
10:03 63.1 °F 59.7 °F 30.4 in Calm     89 % 0 in
10:18 64 °F 60.4 °F 30.4 in ENE 2.3 mph 2.3 mph 88 % 0 in
10:23 64.2 °F 60.6 °F 30.4 in ENE 3.5 mph 3.5 mph 88 % 0 in
10:28 64.6 °F 60.6 °F 30.4 in ESE 3.5 mph 3.5 mph 87 % 0 in
10:33 64.8 °F 60.4 °F 30.4 in East 3.5 mph 3.5 mph 86 % 0 in
10:38 64.9 °F 60.6 °F 30.4 in NE 4.6 mph 4.6 mph 86 % 0 in
10:48 65.3 °F 60.6 °F 30.3 in NNE 4.6 mph 4.6 mph 85 % 0 in
10:53 65.7 °F 60.6 °F 30.3 in NNE 3.5 mph 3.5 mph 84 % 0 in
10:58 66 °F 61 °F 30.4 in ENE 3.5 mph 3.5 mph 84 % 0 in
11:03 66.2 °F 61 °F 30.4 in East 3.5 mph 3.5 mph 83 % 0 in
11:08 66.4 °F 61.2 °F 30.4 in WNW 2.3 mph 2.3 mph 83 % 0 in
11:13 66.7 °F 61.2 °F 30.4 in NE 3.5 mph 3.5 mph 82 % 0 in
11:18 67.1 °F 61.3 °F 30.4 in NNE 3.6 mph 3.6 mph 82 % 0 in
11:23 67.3 °F 61.2 °F 30.4 in NNE 3.5 mph 3.5 mph 81 % 0 in
11:28 67.8 °F 61.9 °F 30.4 in ENE 1.6 mph 1.6 mph 81 % 0 in
11:33 68.2 °F 61.9 °F 30.4 in ENE 2.3 mph 2.3 mph 80 % 0 in
11:38 68.4 °F 61.5 °F 30.4 in East 2.9 mph 2.9 mph 79 % 0 in
11:43 68.5 °F 61.3 °F 30.4 in East 4 mph 4 mph 78 % 0 in
11:48 68.7 °F 61.5 °F 30.4 in NNE 4.6 mph 4.6 mph 78 % 0 in
11:53 68.9 °F 61.9 °F 30.4 in ENE 5.8 mph 5.8 mph 78 % 0 in
11:58 69.3 °F 61.7 °F 30.4 in ESE 6.9 mph 6.9 mph 77 % 0 in
12:03 69.4 °F 61.9 °F 30.4 in East 3.5 mph 3.5 mph 77 % 0 in
12:08 69.6 °F 61.7 °F 30.4 in ENE 3.5 mph 3.5 mph 76 % 0 in
12:13 70 °F 61.7 °F 30.4 in ENE 4.6 mph 4.6 mph 75 % 0 in
12:18 70.3 °F 61.7 °F 30.4 in ESE 2.4 mph 2.4 mph 74 % 0 in
12:23 70.9 °F 62.6 °F 30.4 in NNE 3.6 mph 3.6 mph 75 % 0 in
12:28 71.2 °F 62.4 °F 30.4 in SE 4.6 mph 4.6 mph 74 % 0 in
12:33 71.4 °F 62.2 °F 30.4 in SE 5.8 mph 5.8 mph 73 % 0 in
12:38 71.4 °F 62.2 °F 30.4 in ESE 2.6 mph 2.6 mph 73 % 0 in
12:43 71.6 °F 61.7 °F 30.4 in ENE 4.6 mph 4.6 mph 71 % 0 in
12:48 71.8 °F 61.5 °F 30.4 in ESE 4.6 mph 4.6 mph 70 % 0 in
12:53 72 °F 61.5 °F 30.4 in ESE 6.9 mph 6.9 mph 70 % 0 in
12:58 72.3 °F 61.5 °F 30.4 in NNE 5.8 mph 5.8 mph 69 % 0 in
13:03 73.9 °F 63.1 °F 30.4 in ESE 3.8 mph 3.8 mph 69 % 0 in
13:08 73.6 °F 61.9 °F 30.4 in ENE 4.6 mph 4.6 mph 67 % 0 in
13:13 73.6 °F 61.2 °F 30.4 in SE 6.9 mph 6.9 mph 65 % 0 in
13:18 73 °F 61 °F 30.4 in ESE 5.8 mph 5.8 mph 66 % 0 in
13:23 73 °F 61 °F 30.4 in ESE 2.3 mph 2.3 mph 66 % 0 in
13:28 73.4 °F 61.3 °F 30.4 in ENE 5.4 mph 5.4 mph 66 % 0 in
13:33 73.2 °F 60.6 °F 30.4 in East 8.1 mph 8.1 mph 65 % 0 in
13:38 73 °F 61 °F 30.4 in East 5.8 mph 5.8 mph 66 % 0 in
13:43 73.4 °F 61.3 °F 30.4 in ESE 3.5 mph 3.5 mph 66 % 0 in
13:48 73.2 °F 60.6 °F 30.4 in ESE 4.3 mph 4.3 mph 65 % 0 in
13:53 73 °F 61 °F 30.4 in ESE 5.8 mph 5.8 mph 66 % 0 in
13:58 72.9 °F 60.4 °F 30.4 in SE 5.8 mph 5.8 mph 65 % 0 in
14:03 73.2 °F 61.2 °F 30.4 in ESE 4 mph 4 mph 66 % 0 in
14:08 73.2 °F 61.2 °F 30.4 in ESE 3.5 mph 3.5 mph 66 % 0 in
14:13 73.2 °F 60.6 °F 30.4 in ESE 5.8 mph 5.8 mph 65 % 0 in
14:18 73 °F 60.6 °F 30.4 in ESE 4.6 mph 4.6 mph 65 % 0 in
14:23 72.9 °F 60.1 °F 30.4 in ESE 5.8 mph 5.8 mph 64 % 0 in
14:28 73.4 °F 61 °F 30.4 in ENE 4.9 mph 4.9 mph 65 % 0 in
14:33 73.4 °F 61 °F 30.4 in ESE 5.8 mph 5.8 mph 65 % 0 in
14:38 73.6 °F 60.6 °F 30.4 in ENE 5.8 mph 5.8 mph 64 % 0 in
14:43 73.8 °F 60.8 °F 30.4 in SE 10.4 mph 10.4 mph 64 % 0 in
14:48 73.4 °F 60.4 °F 30.4 in East 5.8 mph 5.8 mph 64 % 0 in
14:53 73.6 °F 60.6 °F 30.4 in East 5.8 mph 5.8 mph 64 % 0 in
14:58 73.4 °F 60.4 °F 30.3 in ESE 4.7 mph 4.7 mph 64 % 0 in
15:03 73.2 °F 60.3 °F 30.3 in ESE 6.9 mph 6.9 mph 64 % 0 in
15:08 73.4 °F 60.4 °F 30.3 in ENE 8.1 mph 8.1 mph 64 % 0 in
15:13 73.6 °F 61.2 °F 30.3 in ENE 5.8 mph 5.8 mph 65 % 0 in
15:18 73.6 °F 60.6 °F 30.3 in ESE 6.4 mph 6.4 mph 64 % 0 in
15:23 73.8 °F 61.3 °F 30.3 in East 9.2 mph 9.2 mph 65 % 0 in
15:28 73.8 °F 60.8 °F 30.3 in ESE 5.8 mph 5.8 mph 64 % 0 in
15:33 74.1 °F 61.2 °F 30.3 in NNE 5.9 mph 5.9 mph 64 % 0 in
15:38 74.7 °F 61.7 °F 30.3 in East 6.9 mph 6.9 mph 64 % 0 in
15:43 74.8 °F 61.9 °F 30.3 in NNE 8.1 mph 8.1 mph 64 % 0 in
15:44 74.5 °F 61.2 °F 30.3 in NNE 5.8 mph 5.8 mph 63 % 0 in
15:49 74.7 °F 61.2 °F 30.3 in ESE 4.6 mph 4.6 mph 63 % 0 in
15:54 74.8 °F 60.4 °F 30.3 in East 8.1 mph 8.1 mph 61 % 0 in
15:59 75.6 °F 60.6 °F 30.3 in ESE 4.6 mph 4.6 mph 60 % 0 in
16:04 75.4 °F 60.1 °F 30.3 in ESE 8.1 mph 8.1 mph 59 % 0 in
16:09 75.2 °F 59.4 °F 30.3 in SE 8.1 mph 8.1 mph 58 % 0 in
16:14 75.7 °F 59.4 °F 30.3 in SE 4.6 mph 4.6 mph 57 % 0 in
16:19 75.7 °F 59.4 °F 30.3 in SSE 5.8 mph 5.8 mph 57 % 0 in
16:24 75.6 °F 59.4 °F 30.3 in East 6.9 mph 6.9 mph 57 % 0 in
16:29 75.7 °F 59.4 °F 30.3 in East 8.1 mph 8.1 mph 57 % 0 in
16:34 75.4 °F 60.1 °F 30.3 in South 3.5 mph 3.5 mph 59 % 0 in
16:39 75.2 °F 59.4 °F 30.3 in SE 8.1 mph 8.1 mph 58 % 0 in
16:44 75.2 °F 59.9 °F 30.3 in East 6.9 mph 6.9 mph 59 % 0 in
16:49 74.7 °F 59.9 °F 30.3 in SE 6.9 mph 6.9 mph 60 % 0 in
16:54 74.7 °F 59.9 °F 30.3 in ESE 6.4 mph 6.4 mph 60 % 0 in
16:59 74.7 °F 59.9 °F 30.3 in SSW 5.8 mph 5.8 mph 60 % 0 in
17:04 74.8 °F 60.1 °F 30.3 in ESE 8.1 mph 8.1 mph 60 % 0 in
17:09 73.9 °F 59.2 °F 30.3 in ESE 8.1 mph 8.1 mph 60 % 0 in
17:14 74.3 °F 60.1 °F 30.3 in SE 3.5 mph 3.5 mph 61 % 0 in
17:19 74.3 °F 60.1 °F 30.3 in SSE 8.1 mph 8.1 mph 61 % 0 in
17:24 73.9 °F 59.5 °F 30.3 in SSE 5.8 mph 5.8 mph 61 % 0 in
17:29 73.4 °F 59.2 °F 30.3 in SSE 6.9 mph 6.9 mph 61 % 0 in
17:34 73.8 °F 59.5 °F 30.3 in ESE 7.4 mph 7.4 mph 61 % 0 in
17:39 73.4 °F 59.2 °F 30.3 in East 5.6 mph 5.6 mph 61 % 0 in
17:44 73.6 °F 59.4 °F 30.3 in SSE 5.8 mph 5.8 mph 61 % 0 in
17:49 73.4 °F 59.2 °F 30.3 in South 5.8 mph 5.8 mph 61 % 0 in
17:54 73 °F 59.2 °F 30.3 in SE 8.1 mph 8.1 mph 62 % 0 in
17:59 72.7 °F 59.4 °F 30.3 in ENE 8.1 mph 8.1 mph 63 % 0 in
18:04 72.5 °F 59.2 °F 30.3 in ENE 6.9 mph 6.9 mph 63 % 0 in
18:09 72.1 °F 58.8 °F 30.3 in SE 8.1 mph 8.1 mph 63 % 0 in
18:14 71.8 °F 58.8 °F 30.3 in ESE 6.4 mph 6.4 mph 64 % 0 in
18:19 71.6 °F 59.2 °F 30.3 in ENE 6.9 mph 6.9 mph 65 % 0 in
18:24 71.4 °F 59.5 °F 30.3 in ESE 5.8 mph 5.8 mph 66 % 0 in
18:29 71.2 °F 59.4 °F 30.3 in East 4.9 mph 4.9 mph 66 % 0 in
18:34 71.1 °F 59.2 °F 30.3 in East 9.2 mph 9.2 mph 66 % 0 in
18:39 70.9 °F 59 °F 30.3 in SE 5.8 mph 5.8 mph 66 % 0 in
18:44 70.7 °F 59.2 °F 30.3 in ESE 3.5 mph 3.5 mph 67 % 0 in
18:49 70.5 °F 59 °F 30.3 in NE 5.8 mph 5.8 mph 67 % 0 in
18:54 70.2 °F 58.6 °F 30.3 in ENE 5.8 mph 5.8 mph 67 % 0 in
18:59 70 °F 58.8 °F 30.3 in ESE 4.6 mph 4.6 mph 68 % 0 in
19:04 69.8 °F 58.8 °F 30.3 in ESE 6.9 mph 6.9 mph 68 % 0 in
19:09 69.4 °F 58.8 °F 30.3 in ESE 4.6 mph 4.6 mph 69 % 0 in
19:14 69.3 °F 59.2 °F 30.3 in ESE 4.6 mph 4.6 mph 70 % 0 in
19:19 69.1 °F 58.8 °F 30.3 in SE 6.9 mph 6.9 mph 70 % 0 in
19:24 68.9 °F 59.2 °F 30.3 in East 4.3 mph 4.3 mph 71 % 0 in
19:29 68.7 °F 58.8 °F 30.3 in ESE 6.9 mph 6.9 mph 71 % 0 in
19:34 68.7 °F 58.8 °F 30.3 in ESE 5.4 mph 5.4 mph 71 % 0 in
19:39 68.5 °F 59.2 °F 30.3 in ESE 5.8 mph 5.8 mph 72 % 0 in
19:44 68.4 °F 59 °F 30.3 in East 3.5 mph 3.5 mph 72 % 0 in
19:49 68.4 °F 59.4 °F 30.3 in ESE 5.6 mph 5.6 mph 73 % 0 in
19:54 68.2 °F 59.2 °F 30.3 in NE 4.6 mph 4.6 mph 73 % 0 in
19:59 68 °F 59 °F 30.3 in ESE 5.4 mph 5.4 mph 73 % 0 in
20:04 68 °F 59.4 °F 30.3 in ESE 4.6 mph 4.6 mph 74 % 0 in
20:09 67.8 °F 59.5 °F 30.3 in ENE 4.6 mph 4.6 mph 75 % 0 in
20:14 67.6 °F 59.4 °F 30.3 in ENE 2.4 mph 2.4 mph 75 % 0 in
20:19 67.6 °F 59.4 °F 30.3 in ENE 2.3 mph 2.3 mph 75 % 0 in
20:24 67.5 °F 59.5 °F 30.3 in ESE 2.9 mph 2.9 mph 76 % 0 in
20:29 67.3 °F 59.5 °F 30.4 in East 2.6 mph 2.6 mph 76 % 0 in
20:35 67.3 °F 59.5 °F 30.4 in East 3.5 mph 3.5 mph 76 % 0 in
20:40 67.1 °F 59.4 °F 30.4 in NNE 3.5 mph 3.5 mph 76 % 0 in
20:45 67.1 °F 59.4 °F 30.3 in ENE 3.5 mph 3.5 mph 76 % 0 in
20:50 66.9 °F 59.5 °F 30.3 in NNE 2.3 mph 2.3 mph 77 % 0 in
20:55 66.7 °F 59.4 °F 30.3 in NNE 2.3 mph 2.3 mph 77 % 0 in
21:00 66.7 °F 59.4 °F 30.4 in NE 1.6 mph 1.6 mph 77 % 0 in
21:05 66.7 °F 59.4 °F 30.4 in NNE 3.1 mph 3.1 mph 77 % 0 in
21:10 66.6 °F 59.2 °F 30.4 in NE 2.9 mph 2.9 mph 77 % 0 in
21:15 66.6 °F 59.2 °F 30.4 in NE 2.4 mph 2.6 mph 77 % 0 in
21:20 66.4 °F 58.8 °F 30.4 in NNE 2.3 mph 2.3 mph 77 % 0 in
21:25 66.2 °F 58.8 °F 30.4 in North 2.3 mph 2.3 mph 77 % 0 in
21:30 66 °F 59 °F 30.3 in NE 2.3 mph 2.3 mph 78 % 0 in
21:35 65.8 °F 58.8 °F 30.3 in NNE 1.6 mph 1.6 mph 78 % 0 in
21:40 65.7 °F 58.6 °F 30.3 in NNE 1.4 mph 1.4 mph 78 % 0 in
21:45 65.5 °F 58.5 °F 30.4 in ENE 1.2 mph   78 % 0 in
21:50 65.5 °F 58.8 °F 30.4 in NNE 1.2 mph 1.2 mph 79 % 0 in
21:55 65.3 °F 58.6 °F 30.4 in Calm   1.2 mph 79 % 0 in
22:00 65.3 °F 58.6 °F 30.4 in NNE 1.2 mph 1.4 mph 79 % 0 in
22:05 65.3 °F 58.6 °F 30.4 in Calm     79 % 0 in
22:10 65.1 °F 58.5 °F 30.4 in Calm     79 % 0 in
22:15 65.1 °F 58.5 °F 30.4 in Calm     79 % 0 in
22:20 65.1 °F 58.5 °F 30.4 in Calm     79 % 0 in
22:25 65.1 °F 58.8 °F 30.4 in Calm     80 % 0 in
22:30 65.1 °F 58.8 °F 30.4 in Calm     80 % 0 in
22:35 64.9 °F 58.6 °F 30.4 in Calm     80 % 0 in
22:40 64.9 °F 58.6 °F 30.4 in Calm     80 % 0 in
22:45 64.8 °F 58.5 °F 30.4 in Calm     80 % 0 in
22:50 64.8 °F 58.5 °F 30.4 in Calm     80 % 0 in
22:55 64.8 °F 58.5 °F 30.4 in Calm     80 % 0 in
23:00 64.6 °F 58.3 °F 30.4 in Calm     80 % 0 in
23:05 64.6 °F 58.3 °F 30.4 in Calm     80 % 0 in
23:10 64.6 °F 58.3 °F 30.4 in Calm     80 % 0 in
23:15 64.4 °F 58.5 °F 30.4 in Calm     81 % 0 in
23:20 64.4 °F 58.5 °F 30.4 in Calm     81 % 0 in
23:25 64.4 °F 58.5 °F 30.4 in Calm     81 % 0 in
23:30 64.4 °F 58.5 °F 30.4 in Calm     81 % 0 in
23:35 64.4 °F 58.5 °F 30.4 in Calm     81 % 0 in
23:40 64.4 °F 58.8 °F 30.4 in Calm     82 % 0 in
23:45 64 °F 58.5 °F 30.4 in Calm     82 % 0 in
23:50 64 °F 58.5 °F 30.4 in Calm     82 % 0 in
23:55 63.9 °F 58.3 °F 30.4 in Calm     82 % 0 in
Meteo Sesrovires
Elogis d' Weather Underground - 4 mb

Guio original per  Jim McMurry - jmcmurry@mwt.net Adaptat per a la plantilla per  Wim van der Kuil - Leuven-Template.eu

Trobareu la nostra informacio del temps tambe a:

Weather Underground

AWEKAS